CDT,Max TemperatureF,Mean TemperatureF,Min TemperatureF,Max Dew PointF,MeanDew PointF,Min DewpointF,Max Humidity, Mean Humidity, Min Humidity, Max Sea Level PressureIn, Mean Sea Level PressureIn, Min Sea Level PressureIn, Max VisibilityMiles, Mean VisibilityMiles, Min VisibilityMiles, Max Wind SpeedMPH, Mean Wind SpeedMPH, Max Gust SpeedMPH,PrecipitationIn, CloudCover, Events, WindDirDegrees
2013-10-1,82,70,57,63,59,51,90,71,51,29.95,29.88,29.83,10,10,9,24,11,31,0.00,1,,229
2013-10-2,73,62,51,57,48,35,86,57,27,30.12,30.05,29.97,10,10,10,12,3,13,0.00,1,,99
2013-10-3,77,68,58,67,62,54,100,82,64,29.99,29.92,29.85,10,6,0,17,6,22,0.70,7,Fog-Rain-Thunderstorm,179
2013-10-4,69,65,60,64,62,60,100,94,87,30.01,29.97,29.89,10,4,0,15,6,20,0.05,8,Fog-Rain,46
2013-10-5,71,67,62,70,64,61,100,95,90,29.95,29.87,29.74,10,3,0,32,5,47,1.19,8,Fog-Rain-Thunderstorm,144
2013-10-6,65,56,47,63,47,39,93,70,46,29.77,29.73,29.68,10,10,2,17,9,22,0.16,6,Rain,242
2013-10-7,66,57,48,47,44,41,86,64,42,30.11,29.88,29.72,10,10,10,17,8,23,T,4,Rain,281
2013-10-8,72,58,43,54,48,42,93,70,47,30.18,30.14,30.11,10,10,9,17,7,20,0.00,1,,161
2013-10-9,69,59,49,49,47,45,89,65,40,30.25,30.20,30.16,10,10,9,17,6,20,0.00,1,,167
2013-10-10,69,57,45,56,51,45,100,77,53,30.19,30.14,30.07,10,7,1,13,3,16,0.00,2,Fog,130
2013-10-11,69,60,50,58,53,50,100,82,63,30.09,30.04,29.98,10,9,5,20,8,23,0.00,2,Fog,143
2013-10-12,70,58,46,63,55,37,87,66,44,30.16,29.99,29.95,10,8,2,15,9,23,0.22,5,Rain-Thunderstorm,210
2013-10-13,62,52,42,42,39,37,86,64,42,30.42,30.34,30.19,10,10,10,16,5,25,0.00,0,,305
2013-10-14,59,50,41,47,42,38,89,73,57,30.44,30.35,30.17,10,10,10,15,8,18,0.00,4,,94
2013-10-15,61,55,48,59,53,42,100,86,71,30.14,29.88,29.75,10,6,1,20,10,28,0.18,6,Rain,183
2013-10-16,56,51,46,52,47,42,89,83,77,29.94,29.86,29.80,10,9,3,16,9,22,0.01,7,Rain,267
2013-10-17,52,47,42,45,44,40,93,80,66,29.92,29.86,29.81,10,9,6,14,6,18,0.10,7,Rain,298
2013-10-18,51,46,41,43,38,36,93,77,61,29.95,29.89,29.82,10,10,10,18,9,24,0.00,6,,253
2013-10-19,54,48,41,38,35,30,82,62,41,29.91,29.82,29.75,10,10,10,22,8,29,T,5,Rain,246
2013-10-20,52,44,35,46,40,35,100,81,61,29.88,29.81,29.74,10,10,9,16,6,18,0.01,4,Rain,218
2013-10-21,50,42,34,43,31,21,80,64,48,29.95,29.88,29.76,10,10,10,20,11,25,0.00,6,,271
2013-10-22,47,39,31,29,25,22,72,57,42,29.98,29.95,29.91,10,10,10,13,6,16,0.00,3,,275
2013-10-23,44,38,31,27,24,18,78,56,33,30.02,29.98,29.93,10,10,10,17,9,23,0.00,4,,305
2013-10-24,44,39,34,27,25,23,70,58,46,30.29,30.15,30.01,10,10,10,18,9,24,0.00,6,,301
2013-10-25,51,42,32,27,25,22,72,54,35,30.38,30.23,29.94,10,10,10,30,13,40,0.00,4,,249
2013-10-26,54,48,42,34,28,24,58,47,35,30.08,29.91,29.79,10,10,10,29,13,40,0.00,6,,284
2013-10-27,54,45,35,30,28,27,75,57,38,30.06,30.01,29.93,10,10,10,20,7,25,0.00,2,,240
2013-10-28,45,41,37,39,34,29,83,68,53,30.44,30.31,30.07,10,10,10,20,12,30,0.00,7,,27
2013-10-29,50,44,37,43,39,32,96,86,76,30.41,30.32,30.17,10,10,6,14,5,16,0.00,6,,93
2013-10-30,64,52,40,57,48,38,100,90,80,30.16,30.00,29.75,10,4,0,26,7,35,0.02,7,Fog-Rain,147
2013-10-31,63,55,46,61,58,43,100,93,86,29.74,29.42,29.22,10,6,0,23,10,36,0.95,8,Fog-Rain,215